createdAt,value
2022-09-21T00:00:30.493Z,100.00
2022-09-21T00:02:57.957Z,100.00
2022-09-21T00:05:24.995Z,100.00
2022-09-21T00:07:52.142Z,100.00
2022-09-21T00:10:20.401Z,100.00
2022-09-21T00:12:48.658Z,100.00
2022-09-21T00:15:19.836Z,100.00
2022-09-21T00:17:49.981Z,100.00
2022-09-21T00:20:16.923Z,100.00
2022-09-21T00:22:44.252Z,100.00
2022-09-21T00:25:10.876Z,100.00
2022-09-21T00:27:37.854Z,100.00
2022-09-21T00:30:06.872Z,100.00
2022-09-21T00:32:35.514Z,100.00
2022-09-21T00:35:03.230Z,100.00
2022-09-21T00:37:30.690Z,100.00
2022-09-21T00:39:57.327Z,100.00
2022-09-21T00:42:26.109Z,100.00
2022-09-21T00:44:52.788Z,100.00
2022-09-21T00:47:35.879Z,100.00
2022-09-21T00:50:07.826Z,100.00
2022-09-21T00:52:38.204Z,100.00
2022-09-21T00:55:13.116Z,100.00
2022-09-21T00:57:39.750Z,100.00
2022-09-21T01:00:08.948Z,100.00
2022-09-21T01:02:37.629Z,100.00
2022-09-21T01:05:06.251Z,100.00
2022-09-21T01:07:36.954Z,100.00
2022-09-21T01:10:13.082Z,100.00
2022-09-21T01:13:07.633Z,100.00
2022-09-21T01:16:15.984Z,100.00
2022-09-21T01:19:04.481Z,100.00
2022-09-21T01:21:38.885Z,100.00
2022-09-21T01:24:47.907Z,100.00
2022-09-21T01:27:32.636Z,100.00
2022-09-21T01:30:02.514Z,100.00
2022-09-21T01:32:42.258Z,100.00
2022-09-21T01:35:19.842Z,100.00
2022-09-21T01:38:01.832Z,100.00
2022-09-21T01:40:42.223Z,100.00
2022-09-21T01:43:14.390Z,100.00
2022-09-21T01:45:49.156Z,100.00
2022-09-21T01:48:17.417Z,100.00
2022-09-21T01:50:49.925Z,100.00
2022-09-21T01:53:38.267Z,100.00
2022-09-21T01:56:09.953Z,100.00
2022-09-21T01:58:43.519Z,100.00
2022-09-21T02:01:15.169Z,100.00
2022-09-21T02:03:52.098Z,100.00
2022-09-21T02:06:19.269Z,100.00
2022-09-21T02:08:46.682Z,100.00
2022-09-21T02:11:14.026Z,100.00
2022-09-21T02:13:45.984Z,100.00
2022-09-21T02:16:12.526Z,100.00
2022-09-21T02:19:02.715Z,100.00
2022-09-21T02:21:41.716Z,100.00
2022-09-21T02:24:26.677Z,100.00
2022-09-21T02:27:03.538Z,100.00
2022-09-21T02:29:42.650Z,100.00
2022-09-21T02:32:09.150Z,100.00
2022-09-21T02:34:47.265Z,100.00
2022-09-21T02:37:16.583Z,100.00
2022-09-21T02:39:45.609Z,100.00
2022-09-21T02:42:15.183Z,100.00
2022-09-21T02:44:48.970Z,100.00
2022-09-21T02:47:24.487Z,100.00
2022-09-21T02:49:56.665Z,100.00
2022-09-21T02:52:23.641Z,100.00
2022-09-21T02:54:52.409Z,100.00
2022-09-21T02:57:20.765Z,100.00
2022-09-21T02:59:47.778Z,100.00
2022-09-21T03:02:14.743Z,100.00
2022-09-21T03:04:42.448Z,100.00
2022-09-21T03:07:09.661Z,100.00
2022-09-21T03:09:36.277Z,100.00
2022-09-21T03:12:03.182Z,100.00
2022-09-21T03:14:29.787Z,100.00
2022-09-21T03:16:56.292Z,100.00
2022-09-21T03:19:22.847Z,100.00
2022-09-21T03:21:49.245Z,100.00
2022-09-21T03:24:35.630Z,100.00
2022-09-21T03:27:02.191Z,100.00
2022-09-21T03:29:28.608Z,100.00
2022-09-21T03:31:56.084Z,100.00
2022-09-21T03:34:23.013Z,100.00
2022-09-21T03:36:49.644Z,100.00
2022-09-21T03:39:16.148Z,100.00
2022-09-21T03:41:42.657Z,100.00
2022-09-21T03:44:09.092Z,100.00
2022-09-21T03:46:35.611Z,100.00
2022-09-21T03:49:03.077Z,100.00
2022-09-21T03:51:32.970Z,100.00
2022-09-21T03:53:59.385Z,100.00
2022-09-21T03:56:25.835Z,100.00
2022-09-21T03:58:52.241Z,100.00
2022-09-21T04:01:18.772Z,100.00
2022-09-21T04:03:45.267Z,100.00
2022-09-21T04:06:12.671Z,100.00
2022-09-21T04:08:39.682Z,100.00
2022-09-21T04:11:18.809Z,100.00
2022-09-21T04:13:49.252Z,100.00
2022-09-21T04:16:15.870Z,100.00
2022-09-21T04:18:42.425Z,100.00
2022-09-21T04:21:09.474Z,100.00
2022-09-21T04:23:35.932Z,100.00
2022-09-21T04:26:02.849Z,100.00
2022-09-21T04:28:29.811Z,100.00
2022-09-21T04:30:56.274Z,100.00
2022-09-21T04:33:23.978Z,100.00
2022-09-21T04:35:57.000Z,100.00
2022-09-21T04:38:23.516Z,100.00
2022-09-21T04:40:56.655Z,100.00
2022-09-21T04:43:23.356Z,100.00
2022-09-21T04:45:49.945Z,100.00
2022-09-21T04:48:16.571Z,100.00
2022-09-21T04:50:44.714Z,100.00
2022-09-21T04:53:11.154Z,100.00
2022-09-21T04:55:37.613Z,100.00
2022-09-21T04:58:04.018Z,100.00
2022-09-21T05:00:30.494Z,100.00
2022-09-21T05:02:56.904Z,100.00
2022-09-21T05:05:23.424Z,100.00
2022-09-21T05:07:49.849Z,100.00
2022-09-21T05:10:17.162Z,100.00
2022-09-21T05:12:43.885Z,100.00
2022-09-21T05:15:11.524Z,100.00
2022-09-21T05:17:38.244Z,100.00
2022-09-21T05:20:04.972Z,100.00
2022-09-21T05:22:31.385Z,100.00
2022-09-21T05:24:57.816Z,100.00
2022-09-21T05:27:24.310Z,100.00
2022-09-21T05:29:50.967Z,100.00
2022-09-21T05:32:17.391Z,100.00
2022-09-21T05:34:53.750Z,100.00
2022-09-21T05:37:32.249Z,100.00
2022-09-21T05:39:58.996Z,100.00
2022-09-21T05:42:25.726Z,100.00
2022-09-21T05:44:53.628Z,100.00
2022-09-21T05:47:20.053Z,100.00
2022-09-21T05:49:52.264Z,100.00
2022-09-21T05:52:32.822Z,100.00
2022-09-21T05:55:01.965Z,100.00
2022-09-21T05:57:34.453Z,100.00
2022-09-21T06:00:07.081Z,100.00
2022-09-21T06:02:52.456Z,100.00
2022-09-21T06:05:19.183Z,100.00
2022-09-21T06:07:47.689Z,100.00
2022-09-21T06:10:14.529Z,100.00
2022-09-21T06:12:40.969Z,100.00
2022-09-21T06:15:10.117Z,100.00
2022-09-21T06:17:36.574Z,100.00
2022-09-21T06:20:03.593Z,100.00
2022-09-21T06:22:30.126Z,100.00
2022-09-21T06:24:57.557Z,100.00
2022-09-21T06:27:24.035Z,100.00
2022-09-21T06:29:50.478Z,100.00
2022-09-21T06:32:16.898Z,100.00
2022-09-21T06:34:43.404Z,100.00
2022-09-21T06:37:09.942Z,100.00
2022-09-21T06:39:36.398Z,100.00
2022-09-21T06:42:02.941Z,100.00
2022-09-21T06:44:30.536Z,100.00
2022-09-21T06:46:57.000Z,100.00
2022-09-21T06:49:24.428Z,100.00
2022-09-21T06:51:50.897Z,100.00
2022-09-21T06:54:18.453Z,100.00
2022-09-21T06:56:45.197Z,100.00
2022-09-21T06:59:11.639Z,100.00
2022-09-21T07:01:38.253Z,100.00
2022-09-21T07:04:05.050Z,100.00
2022-09-21T07:06:31.664Z,100.00
2022-09-21T07:11:44.917Z,100.00
2022-09-21T07:14:11.345Z,100.00
2022-09-21T07:16:38.055Z,100.00
2022-09-21T07:19:10.984Z,100.00
2022-09-21T07:21:38.154Z,100.00
2022-09-21T07:24:08.253Z,100.00
2022-09-21T07:26:37.634Z,100.00
2022-09-21T07:29:04.143Z,100.00
2022-09-21T07:31:30.696Z,100.00
2022-09-21T07:33:58.366Z,100.00
2022-09-21T07:36:24.844Z,100.00
2022-09-21T07:38:51.293Z,100.00
2022-09-21T07:41:17.824Z,100.00
2022-09-21T07:43:44.397Z,100.00
2022-09-21T07:46:12.037Z,100.00
2022-09-21T07:48:38.476Z,100.00
2022-09-21T07:51:06.193Z,100.00
2022-09-21T07:53:37.796Z,100.00
2022-09-21T07:56:08.669Z,100.00
2022-09-21T07:58:54.872Z,100.00
2022-09-21T08:01:21.637Z,100.00
2022-09-21T08:03:51.950Z,100.00
2022-09-21T08:06:19.220Z,100.00
2022-09-21T08:08:47.890Z,100.00
2022-09-21T08:11:16.319Z,100.00
2022-09-21T08:13:42.814Z,100.00
2022-09-21T08:16:09.790Z,100.00
2022-09-21T08:18:36.976Z,100.00
2022-09-21T08:21:03.552Z,100.00
2022-09-21T08:23:30.469Z,100.00
2022-09-21T08:26:01.151Z,100.00
2022-09-21T08:28:28.526Z,100.00
2022-09-21T08:30:58.804Z,100.00
2022-09-21T08:33:29.543Z,100.00
2022-09-21T08:35:57.587Z,100.00
2022-09-21T08:38:24.090Z,96.73
2022-09-21T08:40:51.827Z,82.63
2022-09-21T08:43:36.959Z,78.06
2022-09-21T08:46:09.773Z,82.72
2022-09-21T08:48:41.096Z,75.30
2022-09-21T08:51:09.562Z,67.88
2022-09-21T08:53:42.036Z,71.24
2022-09-21T08:56:12.462Z,70.04
2022-09-21T08:58:42.618Z,68.55
2022-09-21T09:01:21.765Z,73.90
2022-09-21T09:04:07.254Z,67.06
2022-09-21T09:06:34.131Z,67.40
2022-09-21T09:09:12.335Z,66.09
2022-09-21T09:11:41.953Z,68.34
2022-09-21T09:14:14.506Z,68.40
2022-09-21T09:16:43.750Z,65.29
2022-09-21T09:19:28.930Z,66.50
2022-09-21T09:21:56.564Z,65.16
2022-09-21T09:24:34.658Z,67.86
2022-09-21T09:27:28.419Z,67.58
2022-09-21T09:29:57.381Z,66.64
2022-09-21T09:32:29.704Z,65.48
2022-09-21T09:35:00.717Z,64.90
2022-09-21T09:37:31.078Z,60.95
2022-09-21T09:40:00.391Z,62.14
2022-09-21T09:42:45.868Z,62.07
2022-09-21T09:45:27.674Z,65.41
2022-09-21T09:47:57.173Z,63.32
2022-09-21T09:50:32.108Z,61.93
2022-09-21T09:53:05.140Z,62.24
2022-09-21T09:55:48.164Z,62.46
2022-09-21T09:58:17.834Z,61.69
2022-09-21T10:00:45.297Z,60.03
2022-09-21T10:03:19.417Z,60.32
2022-09-21T10:05:46.252Z,60.29
2022-09-21T10:08:27.634Z,59.59
2022-09-21T10:10:54.176Z,59.64
2022-09-21T10:13:50.057Z,57.73
2022-09-21T10:16:23.459Z,57.44
2022-09-21T10:18:56.426Z,54.15
2022-09-21T10:21:24.908Z,55.76
2022-09-21T10:24:02.929Z,58.49
2022-09-21T10:26:37.067Z,60.35
2022-09-21T10:29:18.945Z,52.87
2022-09-21T10:32:00.541Z,55.80
2022-09-21T10:34:30.287Z,51.24
2022-09-21T10:36:58.222Z,53.65
2022-09-21T10:39:26.948Z,51.35
2022-09-21T10:41:53.455Z,52.79
2022-09-21T10:44:21.514Z,52.32
2022-09-21T10:46:49.711Z,54.58
2022-09-21T10:49:27.717Z,53.96
2022-09-21T10:51:57.929Z,55.04
2022-09-21T10:54:26.699Z,58.13
2022-09-21T10:56:54.119Z,61.81
2022-09-21T10:59:23.813Z,70.88
2022-09-21T11:01:51.688Z,70.20
2022-09-21T11:04:22.691Z,67.99
2022-09-21T11:06:51.683Z,69.16
2022-09-21T11:09:32.650Z,68.81
2022-09-21T11:12:06.072Z,74.21
2022-09-21T11:14:38.543Z,70.71
2022-09-21T11:17:11.434Z,76.60
2022-09-21T11:19:44.195Z,72.82
2022-09-21T11:22:27.564Z,57.52
2022-09-21T11:25:07.294Z,50.92
2022-09-21T11:27:36.236Z,52.18
2022-09-21T11:30:07.234Z,50.08
2022-09-21T11:32:37.257Z,44.63
2022-09-21T11:35:18.913Z,49.54
2022-09-21T11:38:04.683Z,48.28
2022-09-21T11:40:37.154Z,46.05
2022-09-21T11:43:21.543Z,45.32
2022-09-21T11:45:52.470Z,46.00
2022-09-21T11:48:22.094Z,43.89
2022-09-21T11:51:03.849Z,43.73
2022-09-21T11:53:41.984Z,43.85
2022-09-21T11:56:15.214Z,45.78
2022-09-21T11:58:41.642Z,44.94
2022-09-21T12:01:23.662Z,42.89
2022-09-21T12:03:50.911Z,45.42
2022-09-21T12:06:43.740Z,46.42
2022-09-21T12:09:25.429Z,45.80
2022-09-21T12:11:52.540Z,42.50
2022-09-21T12:14:22.625Z,40.07
2022-09-21T12:16:49.152Z,40.64
2022-09-21T12:19:27.707Z,42.84
2022-09-21T12:21:58.875Z,43.06
2022-09-21T12:24:32.011Z,41.34
2022-09-21T12:27:07.517Z,41.36
2022-09-21T12:29:38.168Z,44.11
2022-09-21T12:32:13.949Z,46.58
2022-09-21T12:34:46.525Z,46.06
2022-09-21T12:37:21.319Z,47.28
2022-09-21T12:39:50.913Z,46.00
2022-09-21T12:42:26.654Z,47.05
2022-09-21T12:44:56.952Z,48.72
2022-09-21T12:47:47.886Z,48.41
2022-09-21T12:50:34.576Z,49.09
2022-09-21T12:53:01.481Z,49.85
2022-09-21T12:56:01.163Z,48.99
2022-09-21T12:58:46.250Z,49.46
2022-09-21T13:01:15.592Z,51.15
2022-09-21T13:03:47.106Z,51.83
2022-09-21T13:06:20.669Z,54.02
2022-09-21T13:08:47.812Z,51.78
2022-09-21T13:11:21.062Z,50.37
2022-09-21T13:13:53.895Z,48.23
2022-09-21T13:16:24.628Z,46.21
2022-09-21T13:19:00.039Z,43.24
2022-09-21T13:21:30.046Z,44.48
2022-09-21T13:24:01.781Z,43.98
2022-09-21T13:26:31.526Z,44.83
2022-09-21T13:28:58.277Z,43.71
2022-09-21T13:31:41.421Z,43.44
2022-09-21T13:34:17.416Z,44.37
2022-09-21T13:36:43.875Z,45.12
2022-09-21T13:39:14.986Z,48.85
2022-09-21T13:41:59.389Z,47.08
2022-09-21T13:44:34.061Z,45.28
2022-09-21T13:47:02.305Z,48.30
2022-09-21T13:49:31.816Z,47.58
2022-09-21T13:52:01.172Z,46.42
2022-09-21T13:54:36.126Z,45.86
2022-09-21T13:57:20.567Z,47.24
2022-09-21T13:59:59.475Z,47.53
2022-09-21T14:02:32.658Z,45.82
2022-09-21T14:05:19.456Z,44.59
2022-09-21T14:07:47.030Z,46.94
2022-09-21T14:10:18.815Z,45.88
2022-09-21T14:12:47.881Z,46.15
2022-09-21T14:15:18.385Z,45.80
2022-09-21T14:17:45.362Z,47.76
2022-09-21T14:20:30.757Z,47.12
2022-09-21T14:23:20.057Z,44.68
2022-09-21T14:25:53.939Z,44.70
2022-09-21T14:28:36.750Z,45.31
2022-09-21T14:31:07.983Z,44.35
2022-09-21T14:33:46.782Z,45.00
2022-09-21T14:36:16.686Z,45.36
2022-09-21T14:38:54.205Z,47.58
2022-09-21T14:41:23.044Z,47.42
2022-09-21T14:43:53.236Z,45.88
2022-09-21T14:46:28.965Z,46.01
2022-09-21T14:49:14.411Z,45.01
2022-09-21T14:51:55.747Z,44.41
2022-09-21T14:54:36.248Z,47.53
2022-09-21T14:57:02.657Z,45.72
2022-09-21T14:59:32.144Z,45.74
2022-09-21T15:01:59.639Z,44.03
2022-09-21T15:04:45.711Z,43.77
2022-09-21T15:07:50.107Z,44.17
2022-09-21T15:10:38.572Z,43.18
2022-09-21T15:13:08.386Z,44.48
2022-09-21T15:15:46.456Z,42.72
2022-09-21T15:18:20.196Z,43.75
2022-09-21T15:21:13.040Z,43.50
2022-09-21T15:23:40.259Z,42.25
2022-09-21T15:26:16.311Z,43.19
2022-09-21T15:29:08.403Z,41.91
2022-09-21T15:31:39.308Z,43.52
2022-09-21T15:34:06.770Z,43.16
2022-09-21T15:36:38.620Z,44.12
2022-09-21T15:39:05.742Z,42.47
2022-09-21T15:41:44.885Z,44.69
2022-09-21T15:44:11.345Z,46.80
2022-09-21T15:46:38.138Z,47.71
2022-09-21T15:49:06.220Z,47.95
2022-09-21T15:51:39.746Z,49.45
2022-09-21T15:54:15.057Z,49.31
2022-09-21T15:56:43.654Z,51.15
2022-09-21T15:59:14.902Z,50.69
2022-09-21T16:01:44.480Z,51.62
2022-09-21T16:04:17.043Z,51.63
2022-09-21T16:06:46.958Z,53.03
2022-09-21T16:09:31.516Z,53.10
2022-09-21T16:11:58.140Z,56.72
2022-09-21T16:14:43.395Z,57.29
2022-09-21T16:17:21.163Z,61.14
2022-09-21T16:19:54.013Z,64.01
2022-09-21T16:22:50.394Z,64.51
2022-09-21T16:25:19.813Z,66.67
2022-09-21T16:27:51.142Z,68.34
2022-09-21T16:30:36.527Z,69.83
2022-09-21T16:33:04.845Z,70.45
2022-09-21T16:35:38.720Z,71.61
2022-09-21T16:38:10.361Z,73.27
2022-09-21T16:40:36.890Z,73.39
2022-09-21T16:43:05.554Z,73.98
2022-09-21T16:45:32.446Z,76.11
2022-09-21T16:47:59.622Z,76.09
2022-09-21T16:50:26.132Z,79.46
2022-09-21T16:52:52.746Z,81.19
2022-09-21T16:55:19.605Z,82.24
2022-09-21T16:57:49.093Z,83.12
2022-09-21T17:00:20.686Z,85.45
2022-09-21T17:02:48.251Z,86.44
2022-09-21T17:05:19.492Z,83.93
2022-09-21T17:07:53.490Z,85.29
2022-09-21T17:10:20.467Z,85.71
2022-09-21T17:12:47.238Z,90.63
2022-09-21T17:15:13.737Z,93.50
2022-09-21T17:17:40.200Z,92.41
2022-09-21T17:20:16.115Z,90.19
2022-09-21T17:22:42.781Z,90.92
2022-09-21T17:25:10.352Z,88.99
2022-09-21T17:27:37.033Z,87.67
2022-09-21T17:30:03.849Z,92.95
2022-09-21T17:32:30.352Z,98.16
2022-09-21T17:35:26.590Z,100.00
2022-09-21T17:37:53.063Z,98.07
2022-09-21T17:40:20.804Z,99.67
2022-09-21T17:42:48.722Z,99.84
2022-09-21T17:45:27.654Z,97.16
2022-09-21T17:47:54.344Z,96.37
2022-09-21T17:50:23.943Z,98.69
2022-09-21T17:53:10.357Z,100.00
2022-09-21T17:55:38.069Z,100.00
2022-09-21T17:58:10.400Z,100.00
2022-09-21T18:00:52.460Z,100.00
2022-09-21T18:03:24.489Z,100.00
2022-09-21T18:05:54.735Z,100.00
2022-09-21T18:08:21.403Z,100.00
2022-09-21T18:10:56.980Z,100.00
2022-09-21T18:13:47.224Z,100.00
2022-09-21T18:16:13.718Z,100.00
2022-09-21T18:18:45.908Z,100.00
2022-09-21T18:21:19.888Z,100.00
2022-09-21T18:24:00.878Z,100.00
2022-09-21T18:26:27.430Z,100.00
2022-09-21T18:29:12.647Z,100.00
2022-09-21T18:31:50.934Z,100.00
2022-09-21T18:34:32.521Z,100.00
2022-09-21T18:37:13.014Z,100.00
2022-09-21T18:39:42.528Z,100.00
2022-09-21T18:42:26.280Z,100.00
2022-09-21T18:45:19.368Z,100.00
2022-09-21T18:48:08.800Z,100.00
2022-09-21T18:50:58.275Z,100.00
2022-09-21T18:53:41.229Z,100.00
2022-09-21T18:56:08.517Z,100.00
2022-09-21T18:58:38.702Z,100.00
2022-09-21T19:01:06.832Z,100.00
2022-09-21T19:03:33.611Z,100.00
2022-09-21T19:06:29.394Z,100.00
2022-09-21T19:09:01.633Z,100.00
2022-09-21T19:11:34.883Z,100.00
2022-09-21T19:14:17.976Z,100.00
2022-09-21T19:16:45.721Z,100.00
2022-09-21T19:19:30.944Z,100.00
2022-09-21T19:22:20.304Z,100.00
2022-09-21T19:25:00.714Z,100.00
2022-09-21T19:27:34.281Z,100.00
2022-09-21T19:30:05.966Z,100.00
2022-09-21T19:32:38.636Z,100.00
2022-09-21T19:35:25.742Z,100.00
2022-09-21T19:37:53.701Z,100.00
2022-09-21T19:40:21.938Z,100.00
2022-09-21T19:42:52.492Z,100.00
2022-09-21T19:45:27.115Z,100.00
2022-09-21T19:47:54.574Z,100.00
2022-09-21T19:50:26.544Z,100.00
2022-09-21T19:53:13.187Z,100.00
2022-09-21T19:55:59.374Z,100.00
2022-09-21T19:58:44.185Z,100.00
2022-09-21T20:01:12.503Z,100.00
2022-09-21T20:03:42.515Z,100.00
2022-09-21T20:06:16.961Z,100.00
2022-09-21T20:08:50.177Z,100.00
2022-09-21T20:11:16.759Z,100.00
2022-09-21T20:13:53.489Z,100.00
2022-09-21T20:16:31.950Z,100.00
2022-09-21T20:19:18.157Z,100.00
2022-09-21T20:21:47.158Z,100.00
2022-09-21T20:24:18.107Z,100.00
2022-09-21T20:26:47.215Z,100.00
2022-09-21T20:29:13.743Z,100.00
2022-09-21T20:31:40.480Z,100.00
2022-09-21T20:34:06.899Z,100.00
2022-09-21T20:36:33.369Z,100.00
2022-09-21T20:39:00.039Z,100.00
2022-09-21T20:41:27.524Z,100.00
2022-09-21T20:43:53.978Z,100.00
2022-09-21T20:46:21.577Z,100.00
2022-09-21T20:48:48.196Z,100.00
2022-09-21T20:51:14.657Z,100.00
2022-09-21T20:53:42.127Z,100.00
2022-09-21T20:56:08.949Z,100.00
2022-09-21T20:58:35.837Z,100.00
2022-09-21T21:01:03.264Z,100.00
2022-09-21T21:03:29.839Z,100.00
2022-09-21T21:06:13.980Z,100.00
2022-09-21T21:08:40.457Z,100.00
2022-09-21T21:11:06.964Z,100.00
2022-09-21T21:13:33.435Z,100.00
2022-09-21T21:16:00.259Z,100.00
2022-09-21T21:18:27.112Z,100.00
2022-09-21T21:20:53.603Z,100.00
2022-09-21T21:23:21.046Z,100.00
2022-09-21T21:25:48.100Z,100.00
2022-09-21T21:28:15.546Z,100.00
2022-09-21T21:30:42.001Z,100.00
2022-09-21T21:33:08.446Z,100.00
2022-09-21T21:35:35.054Z,100.00
2022-09-21T21:38:01.556Z,100.00
2022-09-21T21:40:28.207Z,100.00
2022-09-21T21:42:55.549Z,100.00
2022-09-21T21:45:22.129Z,100.00
2022-09-21T21:47:48.761Z,100.00
2022-09-21T21:50:15.334Z,100.00
2022-09-21T21:52:41.826Z,100.00
2022-09-21T21:55:08.756Z,100.00
2022-09-21T21:57:35.186Z,100.00
2022-09-21T22:00:01.767Z,100.00
2022-09-21T22:02:29.548Z,100.00
2022-09-21T22:04:57.085Z,100.00
2022-09-21T22:07:23.785Z,100.00
2022-09-21T22:09:50.243Z,100.00
2022-09-21T22:12:16.726Z,100.00
2022-09-21T22:14:46.424Z,100.00
2022-09-21T22:17:13.075Z,100.00
2022-09-21T22:19:39.590Z,100.00
2022-09-21T22:22:06.061Z,100.00
2022-09-21T22:24:32.585Z,100.00
2022-09-21T22:26:59.036Z,100.00
2022-09-21T22:29:25.509Z,100.00
2022-09-21T22:31:52.099Z,100.00
2022-09-21T22:34:18.945Z,100.00
2022-09-21T22:36:45.531Z,100.00
2022-09-21T22:39:12.307Z,100.00
2022-09-21T22:41:39.798Z,100.00
2022-09-21T22:44:06.558Z,100.00
2022-09-21T22:46:33.436Z,100.00
2022-09-21T22:49:00.611Z,100.00
2022-09-21T22:51:29.154Z,100.00
2022-09-21T22:53:55.749Z,100.00
2022-09-21T22:56:23.483Z,100.00
2022-09-21T22:58:51.197Z,100.00
2022-09-21T23:01:20.401Z,100.00
2022-09-21T23:03:48.825Z,100.00
2022-09-21T23:06:17.745Z,100.00
2022-09-21T23:08:48.937Z,100.00
2022-09-21T23:11:16.782Z,100.00
2022-09-21T23:13:43.240Z,100.00
2022-09-21T23:16:11.189Z,100.00
2022-09-21T23:18:38.174Z,100.00
2022-09-21T23:21:07.725Z,100.00
2022-09-21T23:23:34.174Z,100.00
2022-09-21T23:26:05.054Z,100.00
2022-09-21T23:28:31.693Z,100.00
2022-09-21T23:31:00.313Z,100.00
2022-09-21T23:33:53.322Z,100.00
2022-09-21T23:36:21.228Z,100.00
2022-09-21T23:38:48.371Z,100.00
2022-09-21T23:41:16.733Z,100.00
2022-09-21T23:43:43.876Z,100.00
2022-09-21T23:46:13.138Z,100.00
2022-09-21T23:48:39.742Z,100.00
2022-09-21T23:51:06.776Z,100.00
2022-09-21T23:53:33.548Z,100.00
2022-09-21T23:56:00.071Z,100.00
2022-09-21T23:58:27.214Z,100.00
